createdAt,value
2022-10-08T00:00:27.434Z,100.00
2022-10-08T00:03:29.347Z,100.00
2022-10-08T00:06:31.252Z,100.00
2022-10-08T00:09:32.604Z,100.00
2022-10-08T00:12:34.101Z,100.00
2022-10-08T00:15:36.367Z,100.00
2022-10-08T00:18:38.118Z,100.00
2022-10-08T00:21:40.123Z,100.00
2022-10-08T00:24:41.603Z,100.00
2022-10-08T00:27:43.004Z,100.00
2022-10-08T00:30:44.377Z,100.00
2022-10-08T00:33:45.794Z,100.00
2022-10-08T00:36:49.729Z,100.00
2022-10-08T00:39:51.258Z,100.00
2022-10-08T00:42:53.613Z,100.00
2022-10-08T00:45:55.065Z,100.00
2022-10-08T00:49:03.910Z,100.00
2022-10-08T00:52:05.316Z,100.00
2022-10-08T00:55:06.838Z,100.00
2022-10-08T00:58:15.629Z,100.00
2022-10-08T01:01:17.152Z,100.00
2022-10-08T01:04:18.529Z,100.00
2022-10-08T01:07:24.410Z,100.00
2022-10-08T01:10:32.092Z,100.00
2022-10-08T01:13:49.865Z,100.00
2022-10-08T01:16:55.016Z,100.00
2022-10-08T01:19:56.324Z,100.00
2022-10-08T01:23:03.853Z,100.00
2022-10-08T01:26:11.336Z,100.00
2022-10-08T01:29:23.225Z,100.00
2022-10-08T01:32:26.352Z,100.00
2022-10-08T01:35:29.150Z,100.00
2022-10-08T01:38:33.483Z,100.00
2022-10-08T01:41:34.885Z,100.00
2022-10-08T01:44:38.811Z,100.00
2022-10-08T01:47:40.671Z,100.00
2022-10-08T01:50:46.066Z,100.00
2022-10-08T01:53:47.489Z,100.00
2022-10-08T01:56:48.870Z,100.00
2022-10-08T01:59:51.495Z,100.00
2022-10-08T02:02:54.130Z,100.00
2022-10-08T02:05:55.523Z,100.00
2022-10-08T02:08:57.004Z,100.00
2022-10-08T02:11:58.409Z,100.00
2022-10-08T02:14:59.832Z,100.00
2022-10-08T02:18:15.057Z,100.00
2022-10-08T02:21:19.835Z,100.00
2022-10-08T02:24:28.419Z,100.00
2022-10-08T02:27:30.452Z,100.00
2022-10-08T02:30:37.152Z,100.00
2022-10-08T02:33:40.066Z,100.00
2022-10-08T02:36:42.003Z,100.00
2022-10-08T02:39:45.191Z,100.00
2022-10-08T02:42:48.596Z,100.00
2022-10-08T02:45:57.863Z,100.00
2022-10-08T02:49:09.450Z,100.00
2022-10-08T02:52:10.860Z,100.00
2022-10-08T02:55:32.434Z,100.00
2022-10-08T02:58:33.838Z,100.00
2022-10-08T03:01:49.066Z,100.00
2022-10-08T03:04:55.381Z,100.00
2022-10-08T03:07:56.762Z,100.00
2022-10-08T03:10:58.532Z,100.00
2022-10-08T03:13:59.890Z,100.00
2022-10-08T03:17:01.331Z,100.00
2022-10-08T03:20:03.563Z,100.00
2022-10-08T03:23:04.933Z,100.00
2022-10-08T03:26:06.324Z,100.00
2022-10-08T03:29:07.831Z,100.00
2022-10-08T03:32:09.268Z,100.00
2022-10-08T03:35:10.638Z,100.00
2022-10-08T03:38:12.222Z,100.00
2022-10-08T03:41:13.572Z,100.00
2022-10-08T03:44:14.906Z,100.00
2022-10-08T03:47:16.252Z,100.00
2022-10-08T03:50:17.618Z,100.00
2022-10-08T03:53:19.111Z,100.00
2022-10-08T03:56:20.976Z,100.00
2022-10-08T03:59:22.371Z,100.00
2022-10-08T04:02:23.780Z,100.00
2022-10-08T04:05:25.147Z,100.00
2022-10-08T04:08:27.160Z,100.00
2022-10-08T04:11:28.950Z,100.00
2022-10-08T04:14:30.265Z,100.00
2022-10-08T04:17:31.632Z,100.00
2022-10-08T04:20:33.229Z,100.00
2022-10-08T04:23:35.048Z,100.00
2022-10-08T04:26:36.383Z,100.00
2022-10-08T04:29:37.736Z,100.00
2022-10-08T04:32:39.132Z,100.00
2022-10-08T04:35:40.515Z,100.00
2022-10-08T04:38:42.230Z,100.00
2022-10-08T04:41:43.592Z,100.00
2022-10-08T04:44:44.945Z,100.00
2022-10-08T04:47:46.398Z,100.00
2022-10-08T04:50:47.785Z,100.00
2022-10-08T04:53:49.160Z,100.00
2022-10-08T04:56:50.560Z,100.00
2022-10-08T05:00:13.550Z,100.00
2022-10-08T05:03:13.424Z,100.00
2022-10-08T05:06:16.568Z,100.00
2022-10-08T05:09:17.902Z,100.00
2022-10-08T05:12:19.306Z,100.00
2022-10-08T05:15:20.645Z,100.00
2022-10-08T05:18:22.706Z,100.00
2022-10-08T05:21:27.644Z,100.00
2022-10-08T05:24:29.029Z,100.00
2022-10-08T05:27:31.185Z,100.00
2022-10-08T05:30:32.559Z,100.00
2022-10-08T05:33:34.863Z,100.00
2022-10-08T05:36:36.256Z,100.00
2022-10-08T05:39:37.614Z,100.00
2022-10-08T05:42:38.983Z,100.00
2022-10-08T05:45:40.379Z,100.00
2022-10-08T05:48:42.376Z,100.00
2022-10-08T05:51:43.740Z,100.00
2022-10-08T05:54:45.157Z,100.00
2022-10-08T05:57:46.550Z,100.00
2022-10-08T06:00:56.373Z,100.00
2022-10-08T06:03:58.449Z,100.00
2022-10-08T06:06:59.805Z,100.00
2022-10-08T06:10:01.181Z,100.00
2022-10-08T06:13:02.600Z,100.00
2022-10-08T06:16:05.175Z,100.00
2022-10-08T06:19:07.098Z,100.00
2022-10-08T06:22:08.771Z,100.00
2022-10-08T06:25:10.165Z,100.00
2022-10-08T06:28:11.505Z,100.00
2022-10-08T06:31:12.911Z,100.00
2022-10-08T06:34:14.498Z,100.00
2022-10-08T06:37:15.853Z,100.00
2022-10-08T06:40:17.331Z,100.00
2022-10-08T06:43:18.973Z,100.00
2022-10-08T06:46:20.457Z,100.00
2022-10-08T06:49:26.541Z,100.00
2022-10-08T06:52:27.918Z,100.00
2022-10-08T06:55:29.321Z,100.00
2022-10-08T06:58:30.697Z,100.00
2022-10-08T07:01:34.011Z,100.00
2022-10-08T07:04:35.686Z,100.00
2022-10-08T07:07:37.075Z,100.00
2022-10-08T07:10:38.468Z,100.00
2022-10-08T07:13:39.875Z,100.00
2022-10-08T07:16:41.400Z,100.00
2022-10-08T07:19:43.184Z,100.00
2022-10-08T07:22:44.895Z,100.00
2022-10-08T07:25:54.582Z,100.00
2022-10-08T07:28:56.942Z,100.00
2022-10-08T07:31:58.362Z,100.00
2022-10-08T07:35:00.155Z,100.00
2022-10-08T07:38:01.609Z,100.00
2022-10-08T07:41:02.947Z,100.00
2022-10-08T07:44:04.422Z,100.00
2022-10-08T07:47:05.896Z,100.00
2022-10-08T07:50:07.379Z,100.00
2022-10-08T07:53:08.704Z,100.00
2022-10-08T07:56:10.419Z,100.00
2022-10-08T07:59:15.016Z,100.00
2022-10-08T08:02:16.701Z,100.00
2022-10-08T08:05:18.140Z,100.00
2022-10-08T08:08:23.383Z,100.00
2022-10-08T08:11:24.823Z,100.00
2022-10-08T08:14:26.179Z,100.00
2022-10-08T08:17:27.570Z,100.00
2022-10-08T08:20:29.069Z,100.00
2022-10-08T08:23:34.113Z,100.00
2022-10-08T08:26:36.031Z,100.00
2022-10-08T08:29:37.521Z,100.00
2022-10-08T08:32:38.890Z,100.00
2022-10-08T08:35:40.251Z,100.00
2022-10-08T08:38:41.566Z,100.00
2022-10-08T08:41:42.914Z,100.00
2022-10-08T08:44:44.867Z,100.00
2022-10-08T08:47:49.203Z,100.00
2022-10-08T08:50:51.158Z,100.00
2022-10-08T08:53:52.576Z,100.00
2022-10-08T08:56:53.950Z,100.00
2022-10-08T08:59:55.750Z,100.00
2022-10-08T09:03:00.141Z,100.00
2022-10-08T09:06:02.638Z,97.58
2022-10-08T09:09:22.815Z,97.98
2022-10-08T09:12:30.774Z,91.38
2022-10-08T09:15:33.896Z,94.81
2022-10-08T09:18:35.260Z,91.23
2022-10-08T09:21:36.601Z,86.85
2022-10-08T09:24:37.923Z,89.03
2022-10-08T09:27:53.155Z,87.74
2022-10-08T09:30:57.605Z,86.63
2022-10-08T09:34:01.561Z,88.68
2022-10-08T09:37:03.864Z,89.20
2022-10-08T09:40:06.486Z,92.10
2022-10-08T09:43:11.991Z,91.43
2022-10-08T09:46:27.921Z,90.27
2022-10-08T09:49:31.235Z,91.18
2022-10-08T09:52:33.014Z,91.75
2022-10-08T09:55:35.336Z,90.57
2022-10-08T09:58:47.881Z,92.98
2022-10-08T10:01:49.288Z,94.13
2022-10-08T10:04:50.823Z,95.13
2022-10-08T10:07:52.261Z,92.44
2022-10-08T10:10:53.646Z,91.60
2022-10-08T10:13:55.026Z,95.13
2022-10-08T10:16:58.443Z,93.70
2022-10-08T10:20:01.550Z,90.05
2022-10-08T10:23:03.802Z,82.49
2022-10-08T10:26:21.904Z,87.93
2022-10-08T10:29:24.552Z,92.41
2022-10-08T10:32:31.697Z,91.27
2022-10-08T10:35:44.990Z,91.97
2022-10-08T10:38:54.737Z,94.10
2022-10-08T10:42:04.991Z,98.51
2022-10-08T10:45:20.258Z,98.13
2022-10-08T10:48:21.741Z,96.40
2022-10-08T10:51:29.552Z,98.13
2022-10-08T10:54:40.481Z,99.07
2022-10-08T10:57:57.153Z,100.00
2022-10-08T11:01:04.521Z,99.15
2022-10-08T11:04:20.987Z,100.00
2022-10-08T11:07:41.342Z,97.99
2022-10-08T11:11:01.630Z,98.06
2022-10-08T11:14:11.601Z,94.82
2022-10-08T11:17:31.753Z,87.10
2022-10-08T11:20:38.028Z,88.38
2022-10-08T11:23:48.501Z,93.15
2022-10-08T11:27:03.006Z,88.29
2022-10-08T11:30:14.802Z,87.09
2022-10-08T11:33:16.349Z,90.91
2022-10-08T11:36:35.785Z,87.81
2022-10-08T11:39:42.030Z,94.81
2022-10-08T11:42:53.143Z,98.05
2022-10-08T11:46:31.415Z,94.02
2022-10-08T11:49:32.962Z,91.62
2022-10-08T11:52:34.777Z,91.33
2022-10-08T11:55:36.267Z,89.35
2022-10-08T11:58:38.116Z,88.85
2022-10-08T12:01:52.518Z,90.39
2022-10-08T12:04:53.959Z,96.03
2022-10-08T12:07:56.002Z,95.02
2022-10-08T12:10:57.351Z,97.86
2022-10-08T12:14:10.968Z,94.20
2022-10-08T12:17:12.380Z,89.71
2022-10-08T12:20:18.701Z,88.08
2022-10-08T12:23:19.995Z,86.44
2022-10-08T12:26:21.367Z,88.17
2022-10-08T12:29:29.347Z,88.38
2022-10-08T12:32:30.709Z,91.32
2022-10-08T12:35:34.827Z,88.96
2022-10-08T12:38:55.281Z,90.27
2022-10-08T12:42:17.267Z,89.12
2022-10-08T12:45:22.702Z,88.43
2022-10-08T12:48:32.056Z,89.66
2022-10-08T12:51:40.184Z,93.60
2022-10-08T12:54:46.929Z,92.72
2022-10-08T12:57:48.763Z,90.79
2022-10-08T13:00:54.494Z,88.76
2022-10-08T13:04:33.971Z,90.27
2022-10-08T13:07:35.387Z,94.79
2022-10-08T13:10:36.915Z,95.59
2022-10-08T13:13:38.237Z,96.36
2022-10-08T13:16:45.836Z,92.49
2022-10-08T13:19:47.209Z,91.01
2022-10-08T13:22:48.626Z,95.55
2022-10-08T13:25:49.991Z,97.98
2022-10-08T13:29:00.323Z,99.04
2022-10-08T13:32:02.092Z,98.10
2022-10-08T13:35:04.220Z,90.89
2022-10-08T13:38:07.129Z,95.14
2022-10-08T13:41:08.578Z,97.70
2022-10-08T13:44:09.956Z,100.00
2022-10-08T13:47:15.950Z,100.00
2022-10-08T13:50:17.484Z,100.00
2022-10-08T13:53:19.936Z,100.00
2022-10-08T13:56:24.381Z,100.00
2022-10-08T13:59:30.267Z,100.00
2022-10-08T14:02:32.228Z,100.00
2022-10-08T14:05:35.182Z,100.00
2022-10-08T14:08:37.095Z,100.00
2022-10-08T14:11:41.215Z,100.00
2022-10-08T14:14:44.328Z,100.00
2022-10-08T14:17:45.816Z,100.00
2022-10-08T14:20:48.737Z,96.78
2022-10-08T14:23:50.141Z,100.00
2022-10-08T14:26:51.557Z,100.00
2022-10-08T14:29:52.905Z,100.00
2022-10-08T14:32:54.292Z,100.00
2022-10-08T14:35:55.797Z,100.00
2022-10-08T14:38:57.182Z,100.00
2022-10-08T14:41:58.757Z,100.00
2022-10-08T14:45:00.129Z,100.00
2022-10-08T14:48:01.472Z,100.00
2022-10-08T14:51:03.062Z,100.00
2022-10-08T14:54:05.694Z,100.00
2022-10-08T14:57:07.055Z,100.00
2022-10-08T15:00:08.672Z,100.00
2022-10-08T15:03:10.034Z,100.00
2022-10-08T15:06:11.427Z,100.00
2022-10-08T15:09:13.564Z,100.00
2022-10-08T15:12:14.947Z,100.00
2022-10-08T15:15:18.601Z,100.00
2022-10-08T15:18:20.276Z,100.00
2022-10-08T15:21:21.669Z,100.00
2022-10-08T15:24:23.010Z,100.00
2022-10-08T15:27:24.357Z,100.00
2022-10-08T15:30:25.754Z,100.00
2022-10-08T15:33:27.089Z,100.00
2022-10-08T15:36:29.602Z,100.00
2022-10-08T15:39:35.495Z,100.00
2022-10-08T15:42:37.283Z,100.00
2022-10-08T15:45:42.062Z,100.00
2022-10-08T15:48:49.907Z,100.00
2022-10-08T15:51:51.249Z,100.00
2022-10-08T15:54:52.931Z,100.00
2022-10-08T15:57:54.297Z,100.00
2022-10-08T16:00:55.728Z,100.00
2022-10-08T16:03:57.312Z,100.00
2022-10-08T16:06:58.722Z,100.00
2022-10-08T16:10:00.067Z,100.00
2022-10-08T16:13:01.662Z,100.00
2022-10-08T16:16:04.466Z,100.00
2022-10-08T16:19:06.552Z,100.00
2022-10-08T16:22:08.796Z,100.00
2022-10-08T16:25:10.238Z,100.00
2022-10-08T16:28:11.747Z,100.00
2022-10-08T16:31:13.178Z,100.00
2022-10-08T16:34:18.318Z,100.00
2022-10-08T16:37:19.637Z,100.00
2022-10-08T16:40:21.066Z,100.00
2022-10-08T16:43:22.389Z,100.00
2022-10-08T16:46:30.960Z,100.00
2022-10-08T16:49:32.419Z,100.00
2022-10-08T16:52:33.788Z,100.00
2022-10-08T16:55:38.239Z,100.00
2022-10-08T16:58:39.598Z,100.00
2022-10-08T17:01:41.906Z,100.00
2022-10-08T17:04:43.450Z,100.00
2022-10-08T17:07:44.821Z,100.00
2022-10-08T17:10:46.158Z,100.00
2022-10-08T17:13:48.441Z,100.00
2022-10-08T17:16:49.937Z,100.00
2022-10-08T17:19:51.361Z,100.00
2022-10-08T17:22:52.696Z,100.00
2022-10-08T17:25:57.280Z,100.00
2022-10-08T17:29:01.974Z,100.00
2022-10-08T17:32:06.197Z,100.00
2022-10-08T17:35:07.690Z,100.00
2022-10-08T17:38:09.030Z,100.00
2022-10-08T17:41:11.123Z,100.00
2022-10-08T17:44:12.733Z,100.00
2022-10-08T17:47:14.137Z,100.00
2022-10-08T17:50:15.511Z,100.00
2022-10-08T17:53:16.870Z,100.00
2022-10-08T17:56:18.230Z,100.00
2022-10-08T17:59:19.747Z,100.00
2022-10-08T18:02:21.122Z,100.00
2022-10-08T18:05:22.538Z,100.00
2022-10-08T18:08:23.974Z,100.00
2022-10-08T18:11:25.413Z,100.00
2022-10-08T18:14:26.790Z,100.00
2022-10-08T18:17:28.197Z,100.00
2022-10-08T18:20:29.641Z,100.00
2022-10-08T18:23:31.603Z,100.00
2022-10-08T18:26:34.725Z,100.00
2022-10-08T18:29:36.362Z,100.00
2022-10-08T18:32:37.694Z,100.00
2022-10-08T18:35:39.081Z,100.00
2022-10-08T18:38:40.830Z,100.00
2022-10-08T18:41:42.961Z,100.00
2022-10-08T18:44:44.330Z,100.00
2022-10-08T18:47:45.658Z,100.00
2022-10-08T18:50:47.073Z,100.00
2022-10-08T18:53:48.551Z,100.00
2022-10-08T18:56:49.869Z,100.00
2022-10-08T18:59:51.260Z,100.00
2022-10-08T19:02:54.409Z,100.00
2022-10-08T19:05:55.866Z,100.00
2022-10-08T19:08:57.600Z,100.00
2022-10-08T19:12:00.768Z,100.00
2022-10-08T19:15:02.117Z,100.00
2022-10-08T19:18:04.065Z,100.00
2022-10-08T19:21:12.182Z,100.00
2022-10-08T19:24:14.403Z,100.00
2022-10-08T19:27:15.750Z,100.00
2022-10-08T19:30:19.414Z,100.00
2022-10-08T19:33:23.894Z,100.00
2022-10-08T19:36:25.652Z,100.00
2022-10-08T19:39:27.462Z,100.00
2022-10-08T19:42:28.788Z,100.00
2022-10-08T19:45:30.156Z,100.00
2022-10-08T19:48:31.645Z,100.00
2022-10-08T19:51:33.016Z,100.00
2022-10-08T19:54:34.404Z,100.00
2022-10-08T19:57:36.567Z,100.00
2022-10-08T20:00:37.935Z,100.00
2022-10-08T20:03:39.354Z,100.00
2022-10-08T20:06:41.119Z,100.00
2022-10-08T20:09:42.500Z,100.00
2022-10-08T20:12:44.338Z,100.00
2022-10-08T20:15:50.370Z,100.00
2022-10-08T20:18:53.661Z,100.00
2022-10-08T20:21:55.775Z,100.00
2022-10-08T20:24:57.126Z,100.00
2022-10-08T20:27:58.495Z,100.00
2022-10-08T20:31:07.678Z,100.00
2022-10-08T20:34:12.888Z,100.00
2022-10-08T20:37:14.238Z,100.00
2022-10-08T20:40:15.657Z,100.00
2022-10-08T20:43:17.005Z,100.00
2022-10-08T20:46:18.581Z,100.00
2022-10-08T20:49:20.344Z,100.00
2022-10-08T20:52:21.661Z,100.00
2022-10-08T20:55:23.021Z,100.00
2022-10-08T20:58:24.579Z,100.00
2022-10-08T21:01:29.853Z,100.00
2022-10-08T21:04:31.377Z,100.00
2022-10-08T21:07:32.710Z,100.00
2022-10-08T21:10:35.256Z,100.00
2022-10-08T21:13:36.816Z,100.00
2022-10-08T21:16:38.707Z,100.00
2022-10-08T21:19:40.110Z,100.00
2022-10-08T21:22:41.455Z,100.00
2022-10-08T21:25:43.073Z,100.00
2022-10-08T21:28:44.819Z,100.00
2022-10-08T21:31:46.330Z,100.00
2022-10-08T21:34:47.753Z,100.00
2022-10-08T21:37:49.178Z,100.00
2022-10-08T21:40:54.256Z,100.00
2022-10-08T21:43:56.847Z,100.00
2022-10-08T21:46:58.273Z,100.00
2022-10-08T21:49:59.731Z,100.00
2022-10-08T21:53:01.146Z,100.00
2022-10-08T21:56:07.377Z,100.00
2022-10-08T21:59:09.073Z,100.00
2022-10-08T22:02:10.439Z,100.00
2022-10-08T22:05:11.802Z,100.00
2022-10-08T22:08:13.129Z,100.00
2022-10-08T22:11:14.992Z,100.00
2022-10-08T22:14:16.629Z,100.00
2022-10-08T22:17:17.977Z,100.00
2022-10-08T22:20:19.379Z,100.00
2022-10-08T22:23:20.799Z,100.00
2022-10-08T22:26:42.400Z,100.00
2022-10-08T22:29:43.826Z,100.00
2022-10-08T22:32:45.538Z,100.00
2022-10-08T22:35:47.299Z,100.00
2022-10-08T22:38:48.693Z,100.00
2022-10-08T22:41:50.072Z,100.00
2022-10-08T22:44:51.503Z,100.00
2022-10-08T22:47:52.878Z,100.00
2022-10-08T22:50:54.267Z,100.00
2022-10-08T22:53:55.738Z,100.00
2022-10-08T22:56:57.098Z,100.00
2022-10-08T22:59:58.458Z,100.00
2022-10-08T23:02:59.846Z,100.00
2022-10-08T23:06:05.365Z,100.00
2022-10-08T23:09:07.347Z,100.00
2022-10-08T23:12:08.718Z,100.00
2022-10-08T23:15:10.100Z,100.00
2022-10-08T23:18:11.492Z,100.00
2022-10-08T23:21:13.816Z,100.00
2022-10-08T23:24:15.247Z,100.00
2022-10-08T23:27:16.660Z,100.00
2022-10-08T23:30:41.609Z,100.00
2022-10-08T23:33:40.183Z,100.00
2022-10-08T23:36:42.569Z,100.00
2022-10-08T23:39:44.026Z,100.00
2022-10-08T23:42:45.895Z,100.00
2022-10-08T23:45:50.327Z,100.00
2022-10-08T23:48:51.817Z,100.00
2022-10-08T23:51:53.225Z,100.00
2022-10-08T23:54:54.705Z,100.00
2022-10-08T23:57:56.197Z,100.00
